LVNO2: Poteau River At Loving, OK

                                SHEF ID:       LVNO2     Poteau River at Loving, OK
STATION TYPE:
Regulating: Stage = 20.00, Flow = 4673

STAGE RIV-FLOW VOLTAGE BAT-LOAD
ft cfs volt volt
Ccp-Rev Ccp-Rev Ccp-Rev Ccp-Rev
(America/Chicago)
05/01 00:00 11.96 779 12.84 ----
05/01 01:00 11.94 771 12.81 ----
05/01 02:00 11.91 759 12.80 ----
05/01 03:00 11.89 751 12.78 ----
05/01 04:00 11.87 743 12.75 ----
05/01 05:00 11.85 735 12.73 ----
05/01 06:00 11.82 723 12.72 ----
05/01 07:00 11.79 711 12.72 ----
05/01 08:00 11.76 699 12.83 ----
05/01 09:00 11.73 688 13.42 ----
05/01 10:00 11.69 672 14.73 ----
05/01 11:00 11.66 661 14.56 ----
05/01 12:00 11.63 650 14.43 ----
05/01 13:00 11.60 639 14.37 ----
05/01 14:00 11.58 631 14.13 ----
05/01 15:00 11.55 620 13.43 ----
05/01 16:00 11.52 609 14.19 ----
05/01 17:00 11.50 602 13.87 ----
05/01 18:00 11.47 591 13.55 ----
05/01 19:00 11.45 584 13.22 ----
05/01 20:00 11.43 576 13.01 ----
05/01 21:00 11.41 569 12.92 ----
05/01 22:00 11.38 558 12.88 ----
05/01 23:00 11.36 551 12.85 ----
Data processed at Sat 02May2026 04:51 GMT

NOTICE: If you are parsing this page

Please convert to using our Data API. Starting early 2026 we will be migrating to: https://water.usace.army.mil with modern pages rendered in JavaScript. When this migration completes you will no longer be able to scrape this page! CWMSDataAPI (CDA)

Timeseries IDs (TSIDs)

TSIDs used from left to right in the data table
LOVI.Stage.Inst.1Hour.0.Ccp-Rev
LOVI.Flow.Inst.1Hour.0.Ccp-Rev
LOVI.Volt-Battery.Inst.1Hour.0.Ccp-Rev
LOVI.Volt-Battery Load.Inst.1Hour.0.Ccp-Rev

                            

All information presented herein is the property of the government of the United States of America and may be revised or deleted at any time without prior notice. Dissemination of this information without the expressed written consent of the Public Affairs Office, Tulsa District U.S. Army Corps of Engineers is strictly prohibited. These data are gathered electronically and, as presented, have NOT undergone any form of quality control. These data are NOT guaranteed to be valid or correct.